Time;durP1;ratioP1;P1;durP2;ratioP2;P2;SDS_P1;SDS_P2;PMS_P1;PMS_P2;Temp;Humidity;BMP_temperature;BMP_pressure;BME280_temperature;BME280_humidity;BME280_pressure;Samples;Min_cycle;Max_cycle;Signal;HPM_P1;HPM_P2
2022/08/28 00:01:47;;;;;;;;;;;14.40;99.90;;;;;;6114314;23;19967;-79
2022/08/28 00:04:18;;;;;;;;;;;14.50;99.90;;;;;;6134158;23;20003;-78
2022/08/28 00:06:53;;;;;;;;;;;14.50;99.90;;;;;;6133920;23;19995;-80
2022/08/28 00:09:24;;;;;;;;;;;14.50;99.90;;;;;;6158573;23;19969;-80
2022/08/28 00:11:56;;;;;;;;;;;14.50;99.90;;;;;;6132224;23;19916;-78
2022/08/28 00:14:49;;;;;;;;;;;;;;;;;;;;;
2022/08/28 00:17:17;;;;;;;;;;;14.60;99.90;;;;;;6159923;23;20246;-80
2022/08/28 00:20:12;;;;;;;;;;;14.50;99.90;;;;;;6133848;23;19924;-78
2022/08/28 00:22:48;;;;;;;;;;;14.50;99.90;;;;;;6133637;23;20315;-81
2022/08/28 00:25:27;;;;;;;;;;;14.60;99.90;;;;;;6138790;23;19946;-79
2022/08/28 00:28:00;;;;;;;;;;;14.50;99.90;;;;;;6137653;23;19991;-79
2022/08/28 00:30:31;;;;;;;;;;;14.40;99.90;;;;;;6137473;23;19965;-79
2022/08/28 00:33:09;;;;;;;;;;;14.40;99.90;;;;;;6136897;23;19916;-80
2022/08/28 00:35:44;;;;;;;;;;;14.30;99.90;;;;;;6137545;23;19916;-79
2022/08/28 00:38:37;;;;;;;;;;;14.30;99.90;;;;;;6138761;23;19923;-81
2022/08/28 00:41:21;;;;;;;;;;;14.30;99.90;;;;;;6136875;23;19931;-79
2022/08/28 00:46:52;;;;;;;;;;;14.30;99.90;;;;;;6161396;23;19924;-80
2022/08/28 00:49:47;;;;;;;;;;;14.40;99.90;;;;;;6137058;23;20247;-80
2022/08/28 00:52:17;;;;;;;;;;;14.40;99.90;;;;;;6083106;23;20247;-79
2022/08/28 00:55:00;;;;;;;;;;;14.30;99.90;;;;;;6139244;23;19916;-81
2022/08/28 00:57:39;;;;;;;;;;;14.30;99.90;;;;;;6135699;23;19959;-80
2022/08/28 01:00:26;;;;;;;;;;;14.40;99.90;;;;;;6135272;23;19982;-80
2022/08/28 01:03:07;;;;;;;;;;;14.30;99.90;;;;;;6133800;23;19991;-79
2022/08/28 01:05:45;;;;;;;;;;;14.20;99.90;;;;;;6136592;23;19927;-80
2022/08/28 01:08:19;;;;;;;;;;;14.20;99.90;;;;;;6136504;23;20216;-79
2022/08/28 01:10:59;;;;;;;;;;;14.30;99.90;;;;;;6135826;23;20327;-78
2022/08/28 01:13:37;;;;;;;;;;;14.30;99.90;;;;;;6161063;23;19978;-81
2022/08/28 01:16:21;;;;;;;;;;;14.30;99.90;;;;;;6163644;23;20348;-79
2022/08/28 01:19:17;;;;;;;;;;;14.40;99.90;;;;;;6137279;23;19927;-79
2022/08/28 01:21:59;;;;;;;;;;;14.60;99.90;;;;;;6135908;23;19920;-80
2022/08/28 01:24:43;;;;;;;;;;;14.40;99.90;;;;;;6153126;23;19924;-81
2022/08/28 01:27:44;;;;;;;;;;;14.50;99.90;;;;;;6162140;23;20255;-81
2022/08/28 01:30:30;;;;;;;;;;;;;;;;;;;;;
2022/08/28 01:33:20;;;;;;;;;;;;;;;;;;;;;
2022/08/28 01:36:06;;;;;;;;;;;14.50;99.90;;;;;;6160707;23;19920;-80
2022/08/28 01:38:50;;;;;;;;;;;14.50;99.90;;;;;;6135909;23;20242;-78
2022/08/28 01:41:18;;;;;;;;;;;14.40;99.90;;;;;;6095348;23;19923;-80
2022/08/28 01:43:52;;;;;;;;;;;14.40;99.90;;;;;;6045784;23;20269;-81
2022/08/28 01:46:31;;;;;;;;;;;14.40;99.90;;;;;;6047124;23;20265;-81
2022/08/28 01:49:08;;;;;;;;;;;14.40;99.90;;;;;;6047190;23;20296;-80
2022/08/28 01:51:57;;;;;;;;;;;14.30;99.90;;;;;;6048023;23;19917;-79
2022/08/28 01:54:29;;;;;;;;;;;14.40;99.90;;;;;;6048163;23;20242;-80
2022/08/28 01:57:11;;;;;;;;;;;14.50;99.90;;;;;;6049040;23;20360;-78
2022/08/28 01:59:53;;;;;;;;;;;14.70;99.90;;;;;;6024792;23;19917;-80
2022/08/28 02:02:33;;;;;;;;;;;14.50;99.90;;;;;;6047586;23;19921;-81
2022/08/28 02:05:04;;;;;;;;;;;14.50;99.90;;;;;;6045723;23;19917;-80
2022/08/28 02:07:32;;;;;;;;;;;14.40;99.90;;;;;;6047118;23;19924;-78
2022/08/28 02:10:00;;;;;;;;;;;14.40;99.90;;;;;;6046971;23;19917;-80
2022/08/28 02:12:41;;;;;;;;;;;14.40;99.90;;;;;;6097412;23;20331;-79
2022/08/28 02:15:26;;;;;;;;;;;14.50;99.90;;;;;;6158342;23;20139;-81
2022/08/28 02:18:15;;;;;;;;;;;14.40;99.90;;;;;;6136553;23;19974;-80
2022/08/28 02:21:14;;;;;;;;;;;14.50;99.90;;;;;;6166982;23;20242;-78
2022/08/28 02:23:43;;;;;;;;;;;14.30;99.90;;;;;;6153347;23;20397;-80
2022/08/28 02:26:19;;;;;;;;;;;14.30;99.90;;;;;;6168458;23;20247;-79
2022/08/28 02:29:11;;;;;;;;;;;14.30;99.90;;;;;;6166628;23;19954;-80
2022/08/28 02:31:45;;;;;;;;;;;14.30;99.90;;;;;;6165344;23;20003;-80
2022/08/28 02:34:31;;;;;;;;;;;14.40;99.90;;;;;;6192359;23;19916;-78
2022/08/28 02:37:02;;;;;;;;;;;14.40;99.90;;;;;;6164522;23;19955;-79
2022/08/28 02:39:32;;;;;;;;;;;14.40;99.90;;;;;;6140636;23;19915;-79
2022/08/28 02:42:27;;;;;;;;;;;14.40;99.90;;;;;;6163884;23;19943;-80
2022/08/28 02:45:01;;;;;;;;;;;14.50;99.90;;;;;;6187537;23;19916;-79
2022/08/28 02:47:48;;;;;;;;;;;14.50;99.90;;;;;;6164429;23;19927;-78
2022/08/28 02:50:19;;;;;;;;;;;14.50;99.90;;;;;;6164660;23;19916;-80
2022/08/28 02:52:53;;;;;;;;;;;14.50;99.90;;;;;;6164207;23;19951;-80
2022/08/28 02:55:53;;;;;;;;;;;14.50;99.90;;;;;;6165956;23;19919;-79
2022/08/28 02:58:51;;;;;;;;;;;14.50;99.90;;;;;;6165772;23;19916;-78
2022/08/28 03:01:32;;;;;;;;;;;14.30;99.90;;;;;;6192143;23;19923;-80
2022/08/28 03:04:43;;;;;;;;;;;14.50;99.90;;;;;;6185265;23;20323;-80
2022/08/28 03:07:21;;;;;;;;;;;14.50;99.90;;;;;;6165575;23;19955;-80
2022/08/28 03:10:04;;;;;;;;;;;14.50;99.90;;;;;;6191826;23;19916;-80
2022/08/28 03:12:54;;;;;;;;;;;14.50;99.90;;;;;;6193807;23;19995;-78
2022/08/28 03:15:42;;;;;;;;;;;14.60;99.90;;;;;;6191919;23;19916;-78
2022/08/28 03:18:27;;;;;;;;;;;14.50;99.90;;;;;;6166295;23;19916;-80
2022/08/28 03:21:00;;;;;;;;;;;14.40;99.90;;;;;;6134762;23;20390;-80
2022/08/28 03:23:50;;;;;;;;;;;14.40;99.90;;;;;;6101565;23;19921;-78
2022/08/28 03:26:40;;;;;;;;;;;14.50;99.90;;;;;;6130914;23;19905;-80
2022/08/28 03:29:23;;;;;;;;;;;14.50;99.90;;;;;;6104928;23;19928;-80
2022/08/28 03:32:00;;;;;;;;;;;14.50;99.90;;;;;;6104147;23;19905;-79
2022/08/28 03:34:34;;;;;;;;;;;14.40;99.90;;;;;;6098289;23;19975;-79
2022/08/28 03:37:18;;;;;;;;;;;14.40;99.90;;;;;;6101997;23;20398;-81
2022/08/28 03:39:58;;;;;;;;;;;14.40;99.90;;;;;;6041719;23;20341;-79
2022/08/28 03:43:03;;;;;;;;;;;14.40;99.90;;;;;;6066037;23;19988;-81
2022/08/28 03:45:41;;;;;;;;;;;14.40;99.90;;;;;;6033991;23;20277;-80
2022/08/28 03:48:33;;;;;;;;;;;14.50;99.90;;;;;;6040382;23;20329;-80
2022/08/28 03:51:12;;;;;;;;;;;14.40;99.90;;;;;;6040917;23;20325;-80
2022/08/28 03:53:51;;;;;;;;;;;14.40;99.90;;;;;;6053802;23;19917;-80
2022/08/28 03:56:23;;;;;;;;;;;14.40;99.90;;;;;;6077027;23;19991;-80
2022/08/28 03:59:03;;;;;;;;;;;14.40;99.90;;;;;;6079731;23;19923;-79
2022/08/28 04:01:38;;;;;;;;;;;14.40;99.90;;;;;;6078467;23;19927;-79
2022/08/28 04:04:16;;;;;;;;;;;14.40;99.90;;;;;;6076114;23;20344;-78
2022/08/28 04:06:54;;;;;;;;;;;14.40;99.90;;;;;;6076065;23;19988;-81
2022/08/28 04:09:22;;;;;;;;;;;14.50;99.90;;;;;;6075871;23;19927;-81
2022/08/28 04:15:05;;;;;;;;;;;14.60;99.90;;;;;;6149931;23;19917;-81
2022/08/28 04:17:46;;;;;;;;;;;14.60;99.90;;;;;;6130900;23;19916;-80
2022/08/28 04:20:35;;;;;;;;;;;14.70;99.90;;;;;;6136588;23;20339;-80
2022/08/28 04:23:30;;;;;;;;;;;14.60;99.90;;;;;;6157642;23;19921;-81
2022/08/28 04:26:05;;;;;;;;;;;14.80;99.90;;;;;;6161332;23;19939;-81
2022/08/28 04:31:55;;;;;;;;;;;15.00;99.90;;;;;;6147707;23;19917;-78
2022/08/28 04:34:53;;;;;;;;;;;;;;;;;;;;;
2022/08/28 04:37:37;;;;;;;;;;;15.10;99.90;;;;;;6159506;23;19923;-79
2022/08/28 04:40:24;;;;;;;;;;;15.10;99.90;;;;;;6137404;23;19922;-81
2022/08/28 04:43:09;;;;;;;;;;;15.10;99.90;;;;;;6136334;23;20320;-79
2022/08/28 04:46:01;;;;;;;;;;;15.10;99.90;;;;;;6135649;23;19916;-79
2022/08/28 04:48:44;;;;;;;;;;;15.10;99.90;;;;;;6135497;23;20267;-80
2022/08/28 04:51:26;;;;;;;;;;;15.20;99.90;;;;;;6163647;23;19986;-80
2022/08/28 04:54:23;;;;;;;;;;;;;;;;;;;;;
2022/08/28 04:57:17;;;;;;;;;;;15.30;99.90;;;;;;6125678;23;19917;-81
2022/08/28 04:59:58;;;;;;;;;;;15.30;99.90;;;;;;6055785;23;19925;-81
2022/08/28 05:02:42;;;;;;;;;;;15.30;99.90;;;;;;6077592;23;19924;-79
2022/08/28 05:06:04;;;;;;;;;;;15.40;99.90;;;;;;6125361;23;20347;-79
2022/08/28 05:09:00;;;;;;;;;;;15.40;99.90;;;;;;6056162;23;19963;-80
2022/08/28 05:11:33;;;;;;;;;;;15.30;99.90;;;;;;6071674;23;20014;-78
2022/08/28 05:14:36;;;;;;;;;;;15.30;99.90;;;;;;6125244;23;20355;-79
2022/08/28 05:20:28;;;;;;;;;;;15.10;99.90;;;;;;6094821;23;20260;-80
2022/08/28 05:23:37;;;;;;;;;;;15.20;99.90;;;;;;6163515;23;19914;-80
2022/08/28 05:26:18;;;;;;;;;;;15.10;99.90;;;;;;6135267;23;19986;-79
2022/08/28 05:32:20;;;;;;;;;;;15.30;99.90;;;;;;6097304;23;20009;-80
2022/08/28 05:35:01;;;;;;;;;;;15.50;99.90;;;;;;6103557;23;20264;-79
2022/08/28 05:37:33;;;;;;;;;;;15.60;99.90;;;;;;6078807;23;19921;-79
2022/08/28 05:40:01;;;;;;;;;;;15.70;99.90;;;;;;6076467;23;19936;-79
2022/08/28 05:42:44;;;;;;;;;;;15.80;99.90;;;;;;6075925;23;19961;-81
2022/08/28 05:45:12;;;;;;;;;;;15.80;99.90;;;;;;6077029;23;19976;-79
2022/08/28 05:47:38;;;;;;;;;;;15.90;99.90;;;;;;6076605;23;20305;-75
2022/08/28 05:50:04;;;;;;;;;;;15.90;99.90;;;;;;6100468;23;19948;-75
2022/08/28 05:52:30;;;;;;;;;;;16.00;99.90;;;;;;6100378;23;19924;-76
2022/08/28 05:54:58;;;;;;;;;;;16.20;99.90;;;;;;6101302;23;19917;-75
2022/08/28 05:57:23;;;;;;;;;;;16.20;99.90;;;;;;6076364;23;19917;-75
2022/08/28 05:59:52;;;;;;;;;;;16.30;99.90;;;;;;6076347;23;19999;-76
2022/08/28 06:02:23;;;;;;;;;;;16.40;99.90;;;;;;6090873;23;19966;-73
2022/08/28 06:04:49;;;;;;;;;;;16.50;99.90;;;;;;6165719;23;19922;-77
2022/08/28 06:10:31;;;;;;;;;;;16.60;99.90;;;;;;6179384;23;19923;-74
2022/08/28 06:12:57;;;;;;;;;;;16.60;99.90;;;;;;6164966;23;19916;-77
2022/08/28 06:15:22;;;;;;;;;;;16.60;99.90;;;;;;6189986;23;19926;-76
2022/08/28 06:17:48;;;;;;;;;;;16.50;99.90;;;;;;6189949;23;19916;-76
2022/08/28 06:20:14;;;;;;;;;;;16.60;99.90;;;;;;6153984;23;20366;-75
2022/08/28 06:22:40;;;;;;;;;;;16.70;99.90;;;;;;6134589;23;19964;-77
2022/08/28 06:25:06;;;;;;;;;;;16.80;99.90;;;;;;6134380;23;19943;-75
2022/08/28 06:27:33;;;;;;;;;;;16.90;99.90;;;;;;6159044;23;19923;-74
2022/08/28 06:29:58;;;;;;;;;;;17.20;99.90;;;;;;6159714;23;20003;-74
2022/08/28 06:32:27;;;;;;;;;;;17.40;99.90;;;;;;6135827;23;19959;-74
2022/08/28 06:34:52;;;;;;;;;;;17.60;99.90;;;;;;6160089;23;19920;-74
2022/08/28 06:37:18;;;;;;;;;;;17.70;99.90;;;;;;6159708;23;19916;-75
2022/08/28 06:39:46;;;;;;;;;;;17.90;99.90;;;;;;6135202;23;19924;-72
2022/08/28 06:42:12;;;;;;;;;;;18.10;99.90;;;;;;6159020;23;19920;-75
2022/08/28 06:44:38;;;;;;;;;;;18.30;99.90;;;;;;6135540;23;20343;-74
2022/08/28 06:47:14;;;;;;;;;;;18.40;99.90;;;;;;6135948;23;19923;-75
2022/08/28 06:49:40;;;;;;;;;;;18.20;99.90;;;;;;6136179;23;19927;-77
2022/08/28 06:52:05;;;;;;;;;;;18.00;99.90;;;;;;6135634;23;19952;-76
2022/08/28 06:54:34;;;;;;;;;;;17.90;99.90;;;;;;6160011;23;19923;-74
2022/08/28 07:04:02;;;;;;;;;;;18.10;99.90;;;;;;6156338;23;19987;-79
2022/08/28 07:06:42;;;;;;;;;;;18.30;99.90;;;;;;6135651;23;19917;-78
2022/08/28 07:09:09;;;;;;;;;;;18.40;99.90;;;;;;6136148;23;19916;-77
2022/08/28 07:11:36;;;;;;;;;;;18.60;99.90;;;;;;6135652;23;19916;-77
2022/08/28 07:14:02;;;;;;;;;;;18.70;99.90;;;;;;6135476;23;19917;-77
2022/08/28 07:16:36;;;;;;;;;;;19.00;99.90;;;;;;6160030;23;19923;-75
2022/08/28 07:19:04;;;;;;;;;;;19.20;99.90;;;;;;6135018;23;20302;-79
2022/08/28 07:21:57;;;;;;;;;;;19.40;99.90;;;;;;6135360;23;19921;-78
2022/08/28 07:24:31;;;;;;;;;;;19.40;99.90;;;;;;6159463;23;20319;-82
2022/08/28 07:27:23;;;;;;;;;;;19.10;99.90;;;;;;6135831;23;19970;-82
2022/08/28 07:29:51;;;;;;;;;;;18.90;99.90;;;;;;6135627;23;19924;-80
2022/08/28 07:32:20;;;;;;;;;;;18.70;99.90;;;;;;6135507;23;19916;-78
2022/08/28 07:34:49;;;;;;;;;;;18.50;99.90;;;;;;6134165;23;20382;-77
2022/08/28 07:37:15;;;;;;;;;;;18.40;99.90;;;;;;6160726;23;19990;-74
2022/08/28 07:39:41;;;;;;;;;;;18.20;99.90;;;;;;6135636;23;19964;-74
2022/08/28 07:42:06;;;;;;;;;;;18.20;99.90;;;;;;6135479;23;19920;-77
2022/08/28 07:44:53;;;;;;;;;;;18.10;99.90;;;;;;6160168;23;19924;-85
2022/08/28 07:47:19;;;;;;;;;;;18.30;99.90;;;;;;6136145;23;19916;-78
2022/08/28 07:49:54;;;;;;;;;;;18.60;99.90;;;;;;6135573;23;19920;-80
2022/08/28 07:59:52;;;;;;;;;;;18.90;99.90;;;;;;5981489;24;19944;-84
2022/08/28 08:26:17;;;;;;;;;;;19.40;99.90;;;;;;6224176;22;19927;-79
2022/08/28 08:42:33;;;;;;;;;;;19.80;99.90;;;;;;6080037;23;19952;-86
2022/08/28 08:45:28;;;;;;;;;;;19.80;99.90;;;;;;6094132;23;20392;-82
2022/08/28 08:55:07;;;;;;;;;;;19.80;99.90;;;;;;6095790;23;19940;-79
2022/08/28 09:04:40;;;;;;;;;;;20.00;99.90;;;;;;6101124;23;19921;-80
2022/08/28 20:08:28;;;;;;;;;;;16.70;99.90;;;;;;6243656;22;19916;-73
2022/08/28 20:11:00;;;;;;;;;;;16.70;99.90;;;;;;6221554;23;19954;-77
2022/08/28 20:14:04;;;;;;;;;;;16.60;99.90;;;;;;6222603;23;19946;-77
2022/08/28 20:16:30;;;;;;;;;;;16.70;99.90;;;;;;6197966;23;19938;-75
2022/08/28 20:18:56;;;;;;;;;;;16.70;99.90;;;;;;6199274;23;19911;-79
2022/08/28 20:24:48;;;;;;;;;;;16.60;99.90;;;;;;6247981;23;19910;-75
2022/08/28 20:27:58;;;;;;;;;;;16.60;99.90;;;;;;6219887;23;19915;-75
2022/08/28 20:30:29;;;;;;;;;;;16.60;99.90;;;;;;6157009;23;19926;-74
2022/08/28 20:33:01;;;;;;;;;;;16.50;99.90;;;;;;6195637;23;20207;-73
2022/08/28 20:48:59;;;;;;;;;;;16.50;99.90;;;;;;6111546;22;19923;-73
2022/08/28 20:51:51;;;;;;;;;;;16.50;99.90;;;;;;6221095;23;19915;-74
2022/08/28 20:54:10;;;;;;;;;;;16.50;99.90;;;;;;6220530;23;19916;-76
2022/08/28 20:56:36;;;;;;;;;;;16.50;99.90;;;;;;6220959;23;20310;-75
2022/08/28 20:59:02;;;;;;;;;;;16.50;99.90;;;;;;6195234;23;19911;-73
2022/08/28 21:01:27;;;;;;;;;;;16.50;99.90;;;;;;6195418;23;20372;-74
2022/08/28 21:03:53;;;;;;;;;;;16.40;99.90;;;;;;6195015;23;20327;-73
2022/08/28 21:06:18;;;;;;;;;;;16.40;99.90;;;;;;6195285;23;20305;-74
2022/08/28 21:08:46;;;;;;;;;;;16.40;99.90;;;;;;6195039;23;19917;-75
2022/08/28 21:11:12;;;;;;;;;;;16.40;99.90;;;;;;6195273;23;19912;-73
2022/08/28 21:13:37;;;;;;;;;;;16.50;99.90;;;;;;6195365;23;19915;-74
2022/08/28 21:16:03;;;;;;;;;;;16.50;99.90;;;;;;6220447;23;19993;-74
2022/08/28 21:18:29;;;;;;;;;;;16.40;99.90;;;;;;6195773;23;19915;-72
2022/08/28 21:20:54;;;;;;;;;;;16.40;99.90;;;;;;6220029;23;19916;-73
2022/08/28 21:23:20;;;;;;;;;;;16.40;99.90;;;;;;6195374;23;19916;-72
2022/08/28 21:25:47;;;;;;;;;;;16.40;99.90;;;;;;6220503;23;20287;-74
2022/08/28 21:28:12;;;;;;;;;;;16.40;99.90;;;;;;6195586;23;19942;-73
2022/08/28 21:30:39;;;;;;;;;;;16.40;99.90;;;;;;6220899;23;20311;-74
2022/08/28 21:33:04;;;;;;;;;;;16.50;99.90;;;;;;6195413;23;19923;-73
2022/08/28 21:35:30;;;;;;;;;;;16.40;99.90;;;;;;6219925;23;20307;-75
2022/08/28 21:37:56;;;;;;;;;;;16.40;99.90;;;;;;6194123;23;19947;-76
2022/08/28 21:40:21;;;;;;;;;;;16.40;99.90;;;;;;6218936;23;19916;-78
2022/08/28 21:42:47;;;;;;;;;;;16.50;99.90;;;;;;6219127;23;19915;-76
2022/08/28 21:45:12;;;;;;;;;;;16.40;99.90;;;;;;6220757;23;20314;-77
2022/08/28 21:47:39;;;;;;;;;;;16.40;99.90;;;;;;6220651;23;19919;-78
2022/08/28 21:50:07;;;;;;;;;;;16.40;99.90;;;;;;6220503;23;20016;-78
2022/08/28 21:52:33;;;;;;;;;;;16.40;99.90;;;;;;6221147;23;20322;-78
2022/08/28 21:55:00;;;;;;;;;;;16.50;99.90;;;;;;6220838;23;19915;-76
2022/08/28 21:57:26;;;;;;;;;;;16.40;99.90;;;;;;6195492;23;19916;-75
2022/08/28 21:59:51;;;;;;;;;;;16.40;99.90;;;;;;6220826;23;19916;-74
2022/08/28 22:02:17;;;;;;;;;;;16.40;99.90;;;;;;6220710;23;19961;-75
2022/08/28 22:04:43;;;;;;;;;;;16.40;99.90;;;;;;6220690;23;19973;-77
2022/08/28 22:07:10;;;;;;;;;;;16.40;99.90;;;;;;6195935;23;19938;-77
2022/08/28 22:09:36;;;;;;;;;;;16.40;99.90;;;;;;6247901;23;20273;-76
2022/08/28 22:12:02;;;;;;;;;;;16.40;99.90;;;;;;6195637;23;19916;-76
2022/08/28 22:14:27;;;;;;;;;;;16.50;99.90;;;;;;6219936;23;19961;-74
2022/08/28 22:16:53;;;;;;;;;;;16.50;99.90;;;;;;6220445;23;19921;-77
2022/08/28 22:19:19;;;;;;;;;;;16.40;99.90;;;;;;6194397;23;19919;-76
2022/08/28 22:24:29;;;;;;;;;;;16.40;99.90;;;;;;6220402;23;19916;-77
2022/08/28 22:26:54;;;;;;;;;;;16.40;99.90;;;;;;6195592;23;19916;-78
2022/08/28 22:29:20;;;;;;;;;;;16.40;99.90;;;;;;6220611;23;19923;-76
2022/08/28 22:31:46;;;;;;;;;;;16.50;99.90;;;;;;6195476;23;19915;-77
2022/08/28 22:34:11;;;;;;;;;;;16.50;99.90;;;;;;6195454;23;19962;-77
2022/08/28 22:36:37;;;;;;;;;;;16.40;99.90;;;;;;6195365;23;19991;-78
2022/08/28 22:39:03;;;;;;;;;;;16.40;99.90;;;;;;6195626;23;19946;-76
2022/08/28 22:41:30;;;;;;;;;;;16.50;99.90;;;;;;6195209;23;20264;-76
2022/08/28 22:43:55;;;;;;;;;;;16.50;99.90;;;;;;6195641;23;19916;-78
2022/08/28 22:46:21;;;;;;;;;;;16.50;99.90;;;;;;6220562;23;19916;-77
2022/08/28 22:48:47;;;;;;;;;;;16.50;99.90;;;;;;6194721;23;19916;-76
2022/08/28 22:51:14;;;;;;;;;;;16.50;99.90;;;;;;6195404;23;19919;-76
2022/08/28 22:53:41;;;;;;;;;;;16.40;99.90;;;;;;6195206;23;19923;-75
2022/08/28 22:56:07;;;;;;;;;;;16.40;99.90;;;;;;6195477;23;19922;-77
2022/08/28 22:58:33;;;;;;;;;;;16.40;99.90;;;;;;6220035;23;19919;-77
2022/08/28 23:01:01;;;;;;;;;;;16.40;99.90;;;;;;6220183;23;19915;-75
2022/08/28 23:03:26;;;;;;;;;;;16.40;99.90;;;;;;6219955;23;19921;-75
2022/08/28 23:05:52;;;;;;;;;;;16.40;99.90;;;;;;6220296;23;20230;-77
2022/08/28 23:08:18;;;;;;;;;;;16.40;99.90;;;;;;6220152;23;19915;-75
2022/08/28 23:10:44;;;;;;;;;;;16.40;99.90;;;;;;6195067;23;19920;-75
2022/08/28 23:13:09;;;;;;;;;;;16.40;99.90;;;;;;6220262;23;19951;-76
2022/08/28 23:15:35;;;;;;;;;;;16.40;99.90;;;;;;6194931;23;20001;-76
2022/08/28 23:18:01;;;;;;;;;;;16.40;99.90;;;;;;6220160;23;20199;-78
2022/08/28 23:20:27;;;;;;;;;;;16.40;99.90;;;;;;6195132;23;19915;-77
2022/08/28 23:22:53;;;;;;;;;;;16.40;99.90;;;;;;6220440;23;19966;-76
2022/08/28 23:25:20;;;;;;;;;;;16.40;99.90;;;;;;6194497;23;20236;-76
2022/08/28 23:27:45;;;;;;;;;;;16.40;99.90;;;;;;6220481;23;20277;-76
2022/08/28 23:30:12;;;;;;;;;;;16.40;99.90;;;;;;6219846;23;19923;-77
2022/08/28 23:32:38;;;;;;;;;;;16.40;99.90;;;;;;6219881;23;19920;-77
2022/08/28 23:35:04;;;;;;;;;;;16.40;99.90;;;;;;6219520;23;20276;-76
2022/08/28 23:37:30;;;;;;;;;;;16.40;99.90;;;;;;6193802;23;19970;-78
2022/08/28 23:39:56;;;;;;;;;;;16.40;99.90;;;;;;6193764;23;19971;-78
2022/08/28 23:42:21;;;;;;;;;;;16.40;99.90;;;;;;6218597;23;20225;-77
2022/08/28 23:44:47;;;;;;;;;;;16.40;99.90;;;;;;6219667;23;19916;-77
2022/08/28 23:47:13;;;;;;;;;;;16.40;99.90;;;;;;6247349;23;19923;-77
2022/08/28 23:49:38;;;;;;;;;;;16.40;99.90;;;;;;6219558;23;20325;-76
2022/08/28 23:52:04;;;;;;;;;;;16.40;99.90;;;;;;6219822;23;19923;-76
2022/08/28 23:54:29;;;;;;;;;;;16.30;99.90;;;;;;6195015;23;19986;-76
2022/08/28 23:56:55;;;;;;;;;;;16.30;99.90;;;;;;6219832;23;19918;-76
2022/08/28 23:59:21;;;;;;;;;;;16.30;99.90;;;;;;6219806;23;19912;-78
